Time;durP1;ratioP1;P1;durP2;ratioP2;P2;SDS_P1;SDS_P2;PMS_P1;PMS_P2;Temp;Humidity;BMP_temperature;BMP_pressure;BME280_temperature;BME280_humidity;BME280_pressure;Samples;Min_cycle;Max_cycle;Signal;HPM_P1;HPM_P2
2023/01/23 00:01:11;;;;;;;466.30;209.63;;;;;;;;;;4986247;28;20361;-52
2023/01/23 00:03:37;;;;;;;408.70;183.20;;;;;;;;;;4989849;28;20956;-53
2023/01/23 00:06:05;;;;;;;442.13;192.33;;;;;;;;;;4986163;28;20731;-52
2023/01/23 00:08:31;;;;;;;412.30;186.37;;;;;;;;;;4982322;28;20186;-53
2023/01/23 00:10:57;;;;;;;424.27;187.00;;;;;;;;;;5016487;28;20549;-53
2023/01/23 00:13:23;;;;;;;407.63;181.93;;;;;;;;;;4994009;28;20218;-52
2023/01/23 00:15:49;;;;;;;478.47;230.33;;;;;;;;;;4982221;28;20227;-52
2023/01/23 00:18:15;;;;;;;462.77;207.87;;;;;;;;;;5011900;28;20467;-52
2023/01/23 00:20:42;;;;;;;394.13;185.30;;;;;;;;;;4991344;28;20210;-52
2023/01/23 00:23:09;;;;;;;455.87;210.63;;;;;;;;;;4959821;28;20205;-52
2023/01/23 00:25:35;;;;;;;346.80;159.67;;;;;;;;;;4971278;28;20358;-52
2023/01/23 00:28:02;;;;;;;422.87;196.53;;;;;;;;;;4998444;28;20212;-52
2023/01/23 00:30:29;;;;;;;398.37;180.40;;;;;;;;;;4997365;28;20371;-53
2023/01/23 00:32:55;;;;;;;432.63;201.93;;;;;;;;;;4998553;28;20712;-52
2023/01/23 00:35:21;;;;;;;493.43;224.07;;;;;;;;;;4986307;28;20229;-53
2023/01/23 00:37:47;;;;;;;440.37;202.10;;;;;;;;;;4979560;28;20244;-52
2023/01/23 00:40:14;;;;;;;470.07;215.17;;;;;;;;;;4977564;28;20224;-53
2023/01/23 00:42:40;;;;;;;441.80;202.13;;;;;;;;;;4976444;28;20307;-52
2023/01/23 00:45:07;;;;;;;475.40;219.40;;;;;;;;;;4989774;28;20729;-53
2023/01/23 00:47:33;;;;;;;431.93;202.03;;;;;;;;;;4984358;28;20349;-52
2023/01/23 00:49:59;;;;;;;467.47;223.43;;;;;;;;;;4983772;28;20573;-52
2023/01/23 00:52:26;;;;;;;391.33;189.23;;;;;;;;;;4972314;28;20210;-52
2023/01/23 00:54:53;;;;;;;393.77;173.17;;;;;;;;;;4996689;28;20681;-50
2023/01/23 00:57:19;;;;;;;420.70;184.73;;;;;;;;;;5081412;28;20820;-50
2023/01/23 00:59:45;;;;;;;432.43;192.13;;;;;;;;;;5019089;28;20485;-50
2023/01/23 01:02:11;;;;;;;400.57;182.37;;;;;;;;;;5093522;28;20170;-50
2023/01/23 01:04:37;;;;;;;401.30;176.10;;;;;;;;;;4978444;28;20233;-50
2023/01/23 01:07:03;;;;;;;371.63;164.27;;;;;;;;;;4982704;28;20225;-50
2023/01/23 01:09:30;;;;;;;359.40;165.13;;;;;;;;;;5048835;28;20267;-51
2023/01/23 01:11:56;;;;;;;417.97;186.10;;;;;;;;;;5038080;28;20218;-50
2023/01/23 01:14:22;;;;;;;441.10;200.27;;;;;;;;;;5045149;28;20185;-50
2023/01/23 01:16:48;;;;;;;428.50;193.77;;;;;;;;;;5081903;28;20354;-51
2023/01/23 01:19:15;;;;;;;373.70;177.07;;;;;;;;;;5079633;28;20221;-50
2023/01/23 01:21:41;;;;;;;361.33;171.37;;;;;;;;;;5080659;28;20197;-50
2023/01/23 01:24:08;;;;;;;414.20;190.60;;;;;;;;;;5082503;28;20229;-50
2023/01/23 01:26:34;;;;;;;417.03;191.80;;;;;;;;;;5081827;28;20287;-50
2023/01/23 01:29:00;;;;;;;360.57;162.33;;;;;;;;;;5065169;28;20178;-50
2023/01/23 01:31:27;;;;;;;401.73;180.37;;;;;;;;;;5081735;28;20249;-50
2023/01/23 01:33:53;;;;;;;427.87;194.07;;;;;;;;;;4998341;28;20224;-50
2023/01/23 01:36:21;;;;;;;379.73;175.93;;;;;;;;;;4978570;28;20482;-50
2023/01/23 01:38:47;;;;;;;446.60;201.00;;;;;;;;;;4978857;28;20240;-49
2023/01/23 01:41:15;;;;;;;452.07;204.50;;;;;;;;;;4980214;28;20516;-50
2023/01/23 01:43:41;;;;;;;396.17;180.60;;;;;;;;;;4978411;28;20218;-49
2023/01/23 01:46:11;;;;;;;358.00;163.83;;;;;;;;;;4987309;28;20588;-50
2023/01/23 01:48:45;;;;;;;361.13;172.50;;;;;;;;;;5081567;28;20214;-49
2023/01/23 01:51:17;;;;;;;414.83;189.00;;;;;;;;;;5079832;28;20213;-50
2023/01/23 01:53:46;;;;;;;359.07;166.80;;;;;;;;;;5068841;28;20568;-50
2023/01/23 01:56:13;;;;;;;432.07;197.67;;;;;;;;;;4979880;28;20727;-50
2023/01/23 01:58:41;;;;;;;368.17;162.27;;;;;;;;;;4979847;28;20271;-50
2023/01/23 02:01:08;;;;;;;422.17;191.17;;;;;;;;;;4979543;28;20259;-50
2023/01/23 02:03:35;;;;;;;345.17;160.03;;;;;;;;;;4978415;28;20232;-50
2023/01/23 02:06:01;;;;;;;401.57;173.23;;;;;;;;;;4978459;28;20221;-50
2023/01/23 02:08:30;;;;;;;443.47;195.73;;;;;;;;;;4977975;28;20182;-50
2023/01/23 02:11:00;;;;;;;389.97;179.03;;;;;;;;;;4979899;28;20192;-49
2023/01/23 02:13:38;;;;;;;368.90;164.57;;;;;;;;;;4979322;28;20555;-50
2023/01/23 02:16:31;;;;;;;413.60;191.90;;;;;;;;;;4978962;28;20362;-50
2023/01/23 02:18:59;;;;;;;407.93;187.10;;;;;;;;;;4973151;28;20221;-50
2023/01/23 02:21:26;;;;;;;372.07;170.73;;;;;;;;;;4979307;28;20213;-50
2023/01/23 02:24:01;;;;;;;374.30;171.77;;;;;;;;;;4978217;28;20286;-50
2023/01/23 02:26:31;;;;;;;426.03;198.20;;;;;;;;;;4978512;28;20197;-50
2023/01/23 02:28:58;;;;;;;411.53;187.43;;;;;;;;;;4979562;28;20188;-50
2023/01/23 02:31:25;;;;;;;411.47;188.03;;;;;;;;;;4980135;28;20267;-50
2023/01/23 02:33:53;;;;;;;356.13;169.40;;;;;;;;;;4982878;28;20221;-50
2023/01/23 02:36:20;;;;;;;402.93;180.70;;;;;;;;;;4982552;28;20226;-50
2023/01/23 02:38:56;;;;;;;422.53;189.93;;;;;;;;;;4982483;28;20235;-49
2023/01/23 02:41:28;;;;;;;415.83;192.13;;;;;;;;;;4983406;28;20640;-50
2023/01/23 02:43:56;;;;;;;316.27;151.50;;;;;;;;;;4983656;28;20318;-50
2023/01/23 02:46:23;;;;;;;377.17;163.47;;;;;;;;;;4982493;28;20618;-50
2023/01/23 02:48:49;;;;;;;406.73;184.37;;;;;;;;;;4984688;28;20369;-50
2023/01/23 02:51:16;;;;;;;397.20;179.87;;;;;;;;;;4999427;28;20285;-50
2023/01/23 02:53:42;;;;;;;453.30;207.97;;;;;;;;;;4997808;28;20178;-50
2023/01/23 02:56:08;;;;;;;362.77;172.33;;;;;;;;;;5000285;28;20648;-51
2023/01/23 03:01:19;;;;;;;367.50;161.83;;;;;;;;;;5026368;28;20229;-50
2023/01/23 03:03:45;;;;;;;427.83;193.43;;;;;;;;;;4982605;28;20229;-49
2023/01/23 03:06:11;;;;;;;370.60;172.30;;;;;;;;;;4981921;28;20225;-50
2023/01/23 03:08:46;;;;;;;428.40;193.97;;;;;;;;;;4982036;28;20193;-50
2023/01/23 03:11:12;;;;;;;392.97;179.20;;;;;;;;;;4982540;28;20188;-50
2023/01/23 03:13:38;;;;;;;441.20;199.23;;;;;;;;;;4981746;28;20213;-51
2023/01/23 03:16:05;;;;;;;413.03;186.70;;;;;;;;;;4981947;28;20217;-50
2023/01/23 03:18:32;;;;;;;442.53;198.63;;;;;;;;;;4982379;28;20633;-51
2023/01/23 03:21:02;;;;;;;342.10;161.67;;;;;;;;;;4997306;28;20377;-50
2023/01/23 03:23:28;;;;;;;358.57;168.87;;;;;;;;;;4981966;28;20236;-51
2023/01/23 03:25:57;;;;;;;399.37;182.47;;;;;;;;;;5061276;28;20202;-51
2023/01/23 03:31:11;;;;;;;436.67;191.20;;;;;;;;;;4981684;28;20219;-50
2023/01/23 03:33:38;;;;;;;384.80;166.50;;;;;;;;;;5077561;28;20221;-51
2023/01/23 03:36:06;;;;;;;377.17;168.20;;;;;;;;;;5031793;28;20226;-50
2023/01/23 03:38:32;;;;;;;355.10;169.23;;;;;;;;;;4981622;28;20297;-50
2023/01/23 03:43:43;;;;;;;366.63;166.53;;;;;;;;;;4981212;28;20643;-50
2023/01/23 03:46:10;;;;;;;405.50;190.27;;;;;;;;;;4981059;28;20460;-50
2023/01/23 03:48:36;;;;;;;353.67;158.63;;;;;;;;;;5052251;28;20285;-50
2023/01/23 03:51:02;;;;;;;424.80;190.57;;;;;;;;;;5000004;28;20213;-50
2023/01/23 03:53:28;;;;;;;427.60;191.53;;;;;;;;;;4996374;28;20198;-50
2023/01/23 03:55:54;;;;;;;435.07;193.07;;;;;;;;;;5084020;28;20214;-51
2023/01/23 03:58:20;;;;;;;369.97;165.23;;;;;;;;;;5032442;28;20210;-50
2023/01/23 04:00:46;;;;;;;367.13;162.43;;;;;;;;;;5083037;28;20634;-50
2023/01/23 04:03:12;;;;;;;428.93;191.87;;;;;;;;;;5026042;28;20309;-50
2023/01/23 04:05:38;;;;;;;403.23;178.87;;;;;;;;;;4979603;28;20262;-50
2023/01/23 04:08:04;;;;;;;463.33;207.93;;;;;;;;;;4981849;28;20190;-50
2023/01/23 04:10:30;;;;;;;375.03;171.43;;;;;;;;;;4981256;28;20217;-50
2023/01/23 04:12:56;;;;;;;391.07;176.67;;;;;;;;;;4981531;28;20217;-50
2023/01/23 04:15:22;;;;;;;406.87;182.47;;;;;;;;;;5075740;28;20575;-50
2023/01/23 04:17:48;;;;;;;419.37;192.53;;;;;;;;;;5083424;28;20704;-50
2023/01/23 04:20:15;;;;;;;462.07;208.63;;;;;;;;;;5081906;28;20227;-50
2023/01/23 04:22:41;;;;;;;413.20;182.20;;;;;;;;;;4979512;28;20241;-51
2023/01/23 04:25:07;;;;;;;420.97;191.87;;;;;;;;;;5043512;28;20218;-50
2023/01/23 04:27:33;;;;;;;365.10;167.07;;;;;;;;;;4980017;28;20210;-50
2023/01/23 04:29:59;;;;;;;393.27;186.73;;;;;;;;;;4981798;28;20214;-51
2023/01/23 04:32:25;;;;;;;360.20;166.47;;;;;;;;;;4981783;28;20702;-50
2023/01/23 04:34:52;;;;;;;372.80;173.87;;;;;;;;;;5067175;28;20213;-50
2023/01/23 04:37:18;;;;;;;413.50;183.87;;;;;;;;;;5083248;28;20576;-50
2023/01/23 04:39:44;;;;;;;382.23;174.47;;;;;;;;;;5082835;28;20296;-51
2023/01/23 04:42:10;;;;;;;397.33;185.47;;;;;;;;;;5082845;28;20216;-51
2023/01/23 04:44:36;;;;;;;392.27;191.53;;;;;;;;;;5082726;28;20454;-50
2023/01/23 04:47:02;;;;;;;435.33;197.63;;;;;;;;;;5083158;28;20231;-50
2023/01/23 04:49:28;;;;;;;395.43;186.03;;;;;;;;;;5082804;28;20233;-50
2023/01/23 04:51:54;;;;;;;400.87;185.40;;;;;;;;;;5082392;28;20213;-51
2023/01/23 04:54:20;;;;;;;387.13;170.80;;;;;;;;;;5064886;28;20222;-51
2023/01/23 04:56:47;;;;;;;398.83;181.47;;;;;;;;;;4979634;28;20287;-51
2023/01/23 04:59:15;;;;;;;403.40;185.43;;;;;;;;;;5013197;28;20170;-51
2023/01/23 05:01:41;;;;;;;417.67;182.13;;;;;;;;;;5058673;28;20299;-51
2023/01/23 05:04:07;;;;;;;420.00;187.43;;;;;;;;;;5082110;28;20316;-51
2023/01/23 05:06:33;;;;;;;369.60;171.80;;;;;;;;;;4987186;28;20283;-50
2023/01/23 05:08:59;;;;;;;431.87;195.80;;;;;;;;;;4980188;28;20236;-50
2023/01/23 05:11:25;;;;;;;380.60;166.50;;;;;;;;;;4980787;28;20201;-50
2023/01/23 05:13:51;;;;;;;425.03;197.67;;;;;;;;;;5018922;28;20644;-50
2023/01/23 05:16:17;;;;;;;447.90;199.63;;;;;;;;;;5028600;28;20210;-50
2023/01/23 05:18:44;;;;;;;434.93;198.77;;;;;;;;;;5081689;28;20684;-51
2023/01/23 05:21:09;;;;;;;426.27;199.93;;;;;;;;;;5038617;28;20213;-50
2023/01/23 05:23:36;;;;;;;400.20;175.50;;;;;;;;;;5028189;28;20205;-51
2023/01/23 05:26:02;;;;;;;437.23;189.20;;;;;;;;;;4986309;28;20198;-51
2023/01/23 05:28:28;;;;;;;418.03;182.57;;;;;;;;;;5032414;28;20293;-51
2023/01/23 05:30:54;;;;;;;382.47;167.20;;;;;;;;;;4999993;28;20658;-50
2023/01/23 05:33:20;;;;;;;448.20;209.77;;;;;;;;;;5064389;28;20252;-51
2023/01/23 05:35:46;;;;;;;440.87;204.00;;;;;;;;;;4989015;28;20256;-50
2023/01/23 05:38:12;;;;;;;438.77;188.00;;;;;;;;;;4979922;28;20173;-50
2023/01/23 05:40:38;;;;;;;430.07;194.40;;;;;;;;;;4979176;28;20259;-50
2023/01/23 05:43:05;;;;;;;434.93;193.23;;;;;;;;;;5047214;28;20558;-51
2023/01/23 05:45:33;;;;;;;401.23;178.57;;;;;;;;;;5081051;28;20231;-50
2023/01/23 05:47:59;;;;;;;412.13;187.80;;;;;;;;;;5060324;28;20827;-50
2023/01/23 05:50:25;;;;;;;377.33;164.30;;;;;;;;;;4980035;28;20264;-50
2023/01/23 05:52:51;;;;;;;446.63;199.37;;;;;;;;;;5015751;28;20717;-50
2023/01/23 05:55:17;;;;;;;384.50;170.03;;;;;;;;;;5080719;28;20238;-50
2023/01/23 05:57:43;;;;;;;436.73;197.97;;;;;;;;;;5080983;28;20206;-50
2023/01/23 06:00:11;;;;;;;382.53;175.73;;;;;;;;;;5046691;28;20305;-50
2023/01/23 06:02:37;;;;;;;396.53;180.77;;;;;;;;;;5048863;28;20178;-50
2023/01/23 06:05:03;;;;;;;385.30;179.17;;;;;;;;;;4995405;28;20229;-50
2023/01/23 06:07:29;;;;;;;397.90;187.67;;;;;;;;;;5081422;28;20214;-49
2023/01/23 06:09:55;;;;;;;392.93;174.50;;;;;;;;;;5075058;28;20238;-50
2023/01/23 06:12:21;;;;;;;360.70;171.13;;;;;;;;;;5015144;28;20287;-50
2023/01/23 06:14:47;;;;;;;392.33;171.10;;;;;;;;;;5014370;28;20225;-50
2023/01/23 06:17:14;;;;;;;402.77;176.53;;;;;;;;;;5008071;28;20189;-50
2023/01/23 06:19:40;;;;;;;415.27;195.37;;;;;;;;;;5081258;28;20242;-50
2023/01/23 06:22:06;;;;;;;443.20;207.20;;;;;;;;;;4997538;28;20931;-49
2023/01/23 06:24:32;;;;;;;420.63;190.00;;;;;;;;;;4976883;28;20268;-49
2023/01/23 06:26:58;;;;;;;412.10;175.83;;;;;;;;;;4979690;28;20488;-50
2023/01/23 06:29:24;;;;;;;351.37;161.13;;;;;;;;;;4976422;28;20174;-49
2023/01/23 06:31:50;;;;;;;433.37;191.33;;;;;;;;;;4978629;28;20236;-49
2023/01/23 06:34:16;;;;;;;366.63;158.83;;;;;;;;;;4979103;28;20646;-49
2023/01/23 06:36:42;;;;;;;372.13;167.77;;;;;;;;;;4979516;28;20213;-49
2023/01/23 06:39:11;;;;;;;377.93;168.53;;;;;;;;;;4980467;28;20236;-49
2023/01/23 06:41:37;;;;;;;479.00;211.37;;;;;;;;;;4979102;28;20428;-49
2023/01/23 06:44:03;;;;;;;415.70;191.27;;;;;;;;;;4980317;28;20194;-49
2023/01/23 06:46:30;;;;;;;399.93;180.73;;;;;;;;;;4979881;28;20236;-49
2023/01/23 06:48:56;;;;;;;395.20;182.37;;;;;;;;;;4980753;28;20217;-49
2023/01/23 06:51:22;;;;;;;382.90;174.43;;;;;;;;;;5079351;28;20210;-49
2023/01/23 06:53:52;;;;;;;432.60;192.70;;;;;;;;;;5040642;28;20329;-49
2023/01/23 06:56:18;;;;;;;474.27;225.37;;;;;;;;;;5051577;28;20789;-49
2023/01/23 06:58:45;;;;;;;461.33;214.33;;;;;;;;;;5036342;28;20695;-49
2023/01/23 07:01:14;;;;;;;471.20;216.83;;;;;;;;;;5034244;28;20243;-49
2023/01/23 07:03:40;;;;;;;443.53;205.30;;;;;;;;;;5015525;28;20323;-49
2023/01/23 07:06:07;;;;;;;442.97;197.50;;;;;;;;;;5033139;28;20692;-49
2023/01/23 07:08:33;;;;;;;441.23;200.90;;;;;;;;;;5057959;28;20637;-49
2023/01/23 07:11:00;;;;;;;423.17;192.70;;;;;;;;;;5041007;28;20178;-50
2023/01/23 07:13:26;;;;;;;409.17;192.93;;;;;;;;;;5034271;28;20738;-50
2023/01/23 07:15:52;;;;;;;385.23;185.37;;;;;;;;;;5021408;28;20430;-50
2023/01/23 07:18:19;;;;;;;410.87;192.57;;;;;;;;;;5043803;28;20668;-50
2023/01/23 07:20:45;;;;;;;363.57;170.63;;;;;;;;;;5044313;28;20606;-49
2023/01/23 07:23:11;;;;;;;396.90;186.03;;;;;;;;;;5023259;28;20190;-50
2023/01/23 07:25:38;;;;;;;407.73;185.23;;;;;;;;;;5010436;28;20965;-50
2023/01/23 07:28:04;;;;;;;391.70;184.13;;;;;;;;;;5020972;28;20539;-51
2023/01/23 07:30:30;;;;;;;463.13;226.27;;;;;;;;;;5036502;28;20245;-48
2023/01/23 07:32:57;;;;;;;436.30;207.27;;;;;;;;;;5048848;28;20352;-48
2023/01/23 07:35:23;;;;;;;443.73;211.17;;;;;;;;;;5060231;28;20236;-49
2023/01/23 07:37:49;;;;;;;437.80;197.93;;;;;;;;;;5066538;28;20217;-49
2023/01/23 07:40:15;;;;;;;421.40;197.23;;;;;;;;;;5067850;28;20584;-50
2023/01/23 07:42:41;;;;;;;390.20;182.00;;;;;;;;;;5043731;28;20206;-50
2023/01/23 07:45:08;;;;;;;380.70;178.90;;;;;;;;;;5056892;28;20942;-50
2023/01/23 07:47:34;;;;;;;371.37;172.17;;;;;;;;;;5071432;28;20258;-50
2023/01/23 07:50:01;;;;;;;408.97;184.60;;;;;;;;;;5050350;28;20812;-51
2023/01/23 07:52:27;;;;;;;428.60;194.90;;;;;;;;;;5057712;28;20202;-51
2023/01/23 07:54:53;;;;;;;435.97;195.37;;;;;;;;;;5065525;28;20692;-50
2023/01/23 07:57:19;;;;;;;357.00;172.10;;;;;;;;;;5063947;28;20214;-50
2023/01/23 07:59:46;;;;;;;393.10;180.50;;;;;;;;;;5066928;28;20442;-51
2023/01/23 08:02:12;;;;;;;423.80;190.93;;;;;;;;;;5067494;28;20766;-51
2023/01/23 08:04:39;;;;;;;410.20;180.23;;;;;;;;;;5016216;28;20888;-50
2023/01/23 08:07:05;;;;;;;426.73;192.70;;;;;;;;;;5080801;28;20318;-51
2023/01/23 08:09:31;;;;;;;408.37;185.90;;;;;;;;;;5063182;28;20657;-50
2023/01/23 08:11:57;;;;;;;396.20;186.60;;;;;;;;;;5084701;28;20603;-51
2023/01/23 08:14:23;;;;;;;387.43;173.37;;;;;;;;;;5054526;28;20182;-51
2023/01/23 08:16:49;;;;;;;367.70;172.53;;;;;;;;;;5084301;28;20278;-51
2023/01/23 08:19:15;;;;;;;389.30;180.23;;;;;;;;;;5063577;28;20217;-51
2023/01/23 08:21:42;;;;;;;396.57;182.97;;;;;;;;;;5046114;28;20695;-50
2023/01/23 08:24:09;;;;;;;383.00;170.87;;;;;;;;;;5044372;28;20569;-50
2023/01/23 08:26:35;;;;;;;380.17;182.60;;;;;;;;;;5057255;28;20197;-51
2023/01/23 08:29:01;;;;;;;422.67;186.10;;;;;;;;;;5065530;28;20186;-50
2023/01/23 08:31:27;;;;;;;379.63;177.43;;;;;;;;;;5067718;28;20228;-51
2023/01/23 08:33:53;;;;;;;398.47;183.70;;;;;;;;;;5063143;28;20520;-51
2023/01/23 08:36:20;;;;;;;377.27;174.17;;;;;;;;;;5059119;28;20300;-50
2023/01/23 08:38:46;;;;;;;352.37;163.30;;;;;;;;;;5042714;28;20182;-51
2023/01/23 08:41:12;;;;;;;416.87;183.43;;;;;;;;;;5032647;28;20175;-51
2023/01/23 08:43:40;;;;;;;398.37;174.33;;;;;;;;;;5058717;28;20218;-51
2023/01/23 08:46:06;;;;;;;366.10;166.60;;;;;;;;;;5050569;28;20649;-51
2023/01/23 08:48:34;;;;;;;352.00;169.47;;;;;;;;;;5057991;28;20464;-50
2023/01/23 08:51:04;;;;;;;366.93;170.57;;;;;;;;;;5050856;28;20259;-51
2023/01/23 08:53:31;;;;;;;353.73;166.27;;;;;;;;;;5039809;28;20185;-50
2023/01/23 08:56:04;;;;;;;404.57;181.47;;;;;;;;;;5021774;28;20249;-51
2023/01/23 08:58:30;;;;;;;400.83;181.23;;;;;;;;;;5053030;28;20732;-50
2023/01/23 09:00:57;;;;;;;349.73;156.40;;;;;;;;;;5047177;28;20303;-51
2023/01/23 09:03:23;;;;;;;363.60;168.03;;;;;;;;;;5039055;28;20217;-50
2023/01/23 09:05:49;;;;;;;432.70;198.67;;;;;;;;;;5044654;28;20686;-50
2023/01/23 09:08:15;;;;;;;403.80;191.60;;;;;;;;;;5058709;28;20207;-51
2023/01/23 09:10:41;;;;;;;408.63;187.70;;;;;;;;;;5058655;28;20217;-60
2023/01/23 09:13:07;;;;;;;441.83;200.63;;;;;;;;;;5065299;28;20622;-51
2023/01/23 09:15:33;;;;;;;376.80;169.90;;;;;;;;;;4997785;28;20429;-51
2023/01/23 09:17:59;;;;;;;422.03;194.30;;;;;;;;;;4979714;28;20591;-50
2023/01/23 09:20:27;;;;;;;399.80;182.23;;;;;;;;;;4980456;28;20194;-50
2023/01/23 09:22:53;;;;;;;416.37;192.60;;;;;;;;;;4979490;28;20248;-50
2023/01/23 09:25:19;;;;;;;411.70;192.47;;;;;;;;;;4980431;28;20232;-50
2023/01/23 09:27:45;;;;;;;429.57;210.90;;;;;;;;;;4977927;28;20213;-50
2023/01/23 09:30:12;;;;;;;385.60;186.80;;;;;;;;;;4978234;28;20222;-49
2023/01/23 09:32:38;;;;;;;373.63;168.63;;;;;;;;;;4980347;28;20680;-50
2023/01/23 09:35:04;;;;;;;399.43;179.83;;;;;;;;;;5001929;28;20224;-51
2023/01/23 09:37:58;;;;;;;458.20;208.53;;;;;;;;;;4992444;28;20292;-50
2023/01/23 09:40:21;;;;;;;419.77;190.50;;;;;;;;;;4979150;28;20221;-50
2023/01/23 09:42:47;;;;;;;418.43;190.97;;;;;;;;;;4979581;28;20608;-50
2023/01/23 09:45:16;;;;;;;413.23;192.00;;;;;;;;;;4976852;28;20760;-50
2023/01/23 09:47:52;;;;;;;412.20;194.57;;;;;;;;;;4976960;28;20660;-50
2023/01/23 09:50:30;;;;;;;405.47;186.17;;;;;;;;;;4987227;28;20250;-50
2023/01/23 09:53:03;;;;;;;408.60;184.47;;;;;;;;;;4986560;28;20367;-49
2023/01/23 09:55:40;;;;;;;438.50;198.47;;;;;;;;;;4978311;28;20262;-50
2023/01/23 09:58:14;;;;;;;384.87;173.93;;;;;;;;;;4983372;28;20206;-50
2023/01/23 10:00:40;;;;;;;339.53;157.43;;;;;;;;;;4974347;28;20638;-50
2023/01/23 10:03:14;;;;;;;391.43;177.73;;;;;;;;;;4979774;28;20696;-49
2023/01/23 10:05:59;;;;;;;393.77;175.83;;;;;;;;;;4967945;28;20305;-50
2023/01/23 10:08:36;;;;;;;436.10;197.53;;;;;;;;;;4978373;28;20217;-50
2023/01/23 10:11:05;;;;;;;434.13;199.83;;;;;;;;;;4983635;28;20243;-50
2023/01/23 10:13:50;;;;;;;400.93;184.63;;;;;;;;;;4982443;28;20261;-50
2023/01/23 10:16:35;;;;;;;412.63;181.40;;;;;;;;;;4978731;28;20682;-50
2023/01/23 10:19:15;;;;;;;414.47;192.23;;;;;;;;;;4973838;28;20533;-50
2023/01/23 10:22:01;;;;;;;415.00;187.90;;;;;;;;;;4979820;28;20213;-50
2023/01/23 10:24:34;;;;;;;439.60;198.20;;;;;;;;;;4977973;28;20229;-50
2023/01/23 10:27:11;;;;;;;440.67;204.90;;;;;;;;;;4979527;28;20229;-51
2023/01/23 10:29:39;;;;;;;423.00;194.73;;;;;;;;;;4980076;28;20181;-50
2023/01/23 10:32:15;;;;;;;426.33;194.00;;;;;;;;;;4978525;28;20178;-50
2023/01/23 10:34:53;;;;;;;441.00;199.00;;;;;;;;;;4976148;28;20542;-50
2023/01/23 10:37:30;;;;;;;416.73;199.63;;;;;;;;;;4973349;28;20624;-50
2023/01/23 10:40:02;;;;;;;391.00;189.20;;;;;;;;;;4973392;28;20232;-51
2023/01/23 10:42:31;;;;;;;407.63;192.17;;;;;;;;;;4973003;28;20733;-50
2023/01/23 10:44:58;;;;;;;434.03;210.10;;;;;;;;;;4978646;28;20952;-50
2023/01/23 10:47:35;;;;;;;397.67;195.97;;;;;;;;;;4979215;28;20182;-51
2023/01/23 10:50:01;;;;;;;415.03;204.57;;;;;;;;;;4985135;28;20217;-50
2023/01/23 10:52:31;;;;;;;408.10;202.07;;;;;;;;;;5043724;28;20242;-50
2023/01/23 10:54:58;;;;;;;392.87;190.00;;;;;;;;;;5053773;28;20226;-53
2023/01/23 10:57:25;;;;;;;392.73;193.67;;;;;;;;;;5052691;28;20216;-51
2023/01/23 10:59:55;;;;;;;422.77;200.53;;;;;;;;;;5020173;28;20249;-52
2023/01/23 11:02:29;;;;;;;425.57;196.80;;;;;;;;;;5034581;28;20194;-51
2023/01/23 11:04:55;;;;;;;419.03;198.53;;;;;;;;;;5004986;28;20820;-50
2023/01/23 11:07:23;;;;;;;436.00;206.13;;;;;;;;;;5022708;28;20596;-50
2023/01/23 11:09:57;;;;;;;427.33;209.23;;;;;;;;;;5018015;28;20311;-50
2023/01/23 11:12:28;;;;;;;419.80;203.33;;;;;;;;;;5019474;28;20233;-50
2023/01/23 11:15:12;;;;;;;443.97;212.07;;;;;;;;;;5042380;28;20659;-50
2023/01/23 11:17:41;;;;;;;427.70;212.80;;;;;;;;;;5040241;28;20210;-50
2023/01/23 11:20:25;;;;;;;435.37;215.77;;;;;;;;;;5027691;28;20193;-51
2023/01/23 11:23:10;;;;;;;365.80;176.20;;;;;;;;;;5016327;28;20356;-51
2023/01/23 11:25:37;;;;;;;402.47;194.77;;;;;;;;;;5035846;28;20268;-51
2023/01/23 11:28:33;;;;;;;413.47;199.00;;;;;;;;;;5002077;28;20821;-51
2023/01/23 11:31:12;;;;;;;466.77;223.77;;;;;;;;;;5019712;28;20210;-51
2023/01/23 11:33:51;;;;;;;402.53;189.80;;;;;;;;;;5037628;28;20223;-51
2023/01/23 11:36:17;;;;;;;373.63;181.03;;;;;;;;;;5023697;28;20225;-52
2023/01/23 11:38:45;;;;;;;393.47;185.90;;;;;;;;;;5019132;28;20242;-51
2023/01/23 11:41:18;;;;;;;393.53;190.17;;;;;;;;;;5026218;28;20188;-52
2023/01/23 11:43:47;;;;;;;380.67;183.13;;;;;;;;;;5019998;28;20238;-51
2023/01/23 11:46:25;;;;;;;414.40;193.97;;;;;;;;;;5011117;28;20365;-51
2023/01/23 11:48:54;;;;;;;415.93;198.23;;;;;;;;;;5034321;28;20213;-51
2023/01/23 11:51:26;;;;;;;388.00;184.87;;;;;;;;;;5031283;28;20507;-51
2023/01/23 11:53:58;;;;;;;400.57;186.27;;;;;;;;;;5034679;28;20352;-52
2023/01/23 11:56:43;;;;;;;400.23;193.77;;;;;;;;;;5018558;28;20314;-51
2023/01/23 11:59:21;;;;;;;398.07;194.50;;;;;;;;;;5028973;28;20585;-51
2023/01/23 12:02:10;;;;;;;397.80;193.47;;;;;;;;;;5025831;28;20309;-51
2023/01/23 12:04:52;;;;;;;406.43;200.10;;;;;;;;;;5025908;28;20632;-51
2023/01/23 12:07:20;;;;;;;449.73;219.80;;;;;;;;;;5008374;28;20671;-51
2023/01/23 12:10:02;;;;;;;420.07;206.17;;;;;;;;;;5021323;28;20252;-51
2023/01/23 12:12:47;;;;;;;401.63;196.90;;;;;;;;;;5011614;28;20260;-51
2023/01/23 12:15:31;;;;;;;444.00;208.13;;;;;;;;;;5018564;28;20927;-51
2023/01/23 12:18:06;;;;;;;410.50;198.80;;;;;;;;;;5023345;28;20253;-51
2023/01/23 12:20:36;;;;;;;407.13;199.57;;;;;;;;;;5007290;28;20188;-53
2023/01/23 12:23:18;;;;;;;441.40;216.47;;;;;;;;;;5035557;28;20556;-50
2023/01/23 12:25:58;;;;;;;429.40;214.43;;;;;;;;;;5024650;28;20580;-49
2023/01/23 12:28:42;;;;;;;420.03;204.57;;;;;;;;;;5050047;28;20297;-49
2023/01/23 12:31:27;;;;;;;393.93;194.80;;;;;;;;;;5021005;28;20221;-51
2023/01/23 12:34:05;;;;;;;417.40;197.87;;;;;;;;;;5042920;28;20230;-50
2023/01/23 12:36:50;;;;;;;417.03;205.37;;;;;;;;;;5054609;28;20225;-50
2023/01/23 12:39:28;;;;;;;413.87;200.33;;;;;;;;;;5026558;28;20541;-49
2023/01/23 12:42:03;;;;;;;429.90;209.27;;;;;;;;;;5036053;28;20232;-49
2023/01/23 12:44:29;;;;;;;429.17;209.03;;;;;;;;;;5024033;28;20664;-50
2023/01/23 12:47:00;;;;;;;378.93;181.77;;;;;;;;;;5045671;28;20382;-50
2023/01/23 12:49:26;;;;;;;400.87;198.17;;;;;;;;;;5049825;28;20210;-50
2023/01/23 12:51:57;;;;;;;407.43;196.73;;;;;;;;;;5053841;28;20217;-49
2023/01/23 12:54:41;;;;;;;424.33;201.00;;;;;;;;;;5044317;28;20252;-50
2023/01/23 12:57:09;;;;;;;594.57;306.43;;;;;;;;;;4962695;22;20242;-49
2023/01/23 12:59:41;;;;;;;552.03;290.20;;;;;;;;;;4930854;28;20273;-50
2023/01/23 13:02:23;;;;;;;599.07;306.50;;;;;;;;;;4930473;28;20195;-50
2023/01/23 13:05:03;;;;;;;604.90;323.67;;;;;;;;;;4939530;28;21065;-50
2023/01/23 13:07:45;;;;;;;638.53;323.77;;;;;;;;;;4916310;28;20219;-49
2023/01/23 13:10:21;;;;;;;616.70;326.10;;;;;;;;;;4900511;28;20218;-49
2023/01/23 13:12:48;;;;;;;594.90;313.10;;;;;;;;;;4904783;28;20215;-51
2023/01/23 13:15:18;;;;;;;672.57;357.70;;;;;;;;;;4889038;28;21425;-49
2023/01/23 13:17:47;;;;;;;615.27;327.57;;;;;;;;;;4891579;28;20199;-50
2023/01/23 13:23:26;;;;;;;630.00;326.73;;;;;;;;;;4887064;28;20242;-50
2023/01/23 13:26:11;;;;;;;599.43;314.37;;;;;;;;;;4884024;28;20227;-49
2023/01/23 13:29:03;;;;;;;599.13;306.97;;;;;;;;;;4900825;28;20220;-49
2023/01/23 13:31:34;;;;;;;530.90;266.50;;;;;;;;;;4906227;28;20712;-50
2023/01/23 13:34:01;;;;;;;614.30;328.63;;;;;;;;;;4891838;28;20253;-49
2023/01/23 13:36:32;;;;;;;562.77;299.10;;;;;;;;;;4890677;28;20725;-49
2023/01/23 13:39:16;;;;;;;608.63;316.07;;;;;;;;;;4895024;28;20243;-50
2023/01/23 13:41:44;;;;;;;561.57;293.60;;;;;;;;;;4896243;28;20251;-50
2023/01/23 13:44:10;;;;;;;612.70;315.87;;;;;;;;;;4897573;28;20207;-50
2023/01/23 13:46:43;;;;;;;604.07;310.17;;;;;;;;;;4909278;28;20276;-49
2023/01/23 13:57:48;;;;;;;573.70;292.03;;;;;;;;;;4904327;28;20253;-49
2023/01/23 14:00:16;;;;;;;610.00;315.90;;;;;;;;;;4893691;28;20239;-50
2023/01/23 14:05:31;;;;;;;598.07;311.13;;;;;;;;;;4891955;28;20343;-50
2023/01/23 14:08:04;;;;;;;548.23;286.10;;;;;;;;;;4898746;28;20232;-49
2023/01/23 14:10:32;;;;;;;595.67;315.07;;;;;;;;;;4911469;28;20219;-50
2023/01/23 14:13:11;;;;;;;607.60;317.33;;;;;;;;;;4901939;28;20701;-50
2023/01/23 14:18:23;;;;;;;622.50;334.57;;;;;;;;;;4884025;28;20357;-49
2023/01/23 14:20:50;;;;;;;567.07;296.50;;;;;;;;;;4880150;28;20531;-49
2023/01/23 14:23:25;;;;;;;601.80;310.13;;;;;;;;;;4885731;28;20391;-48
2023/01/23 14:25:51;;;;;;;602.27;315.90;;;;;;;;;;4903261;28;20226;-50
2023/01/23 14:28:17;;;;;;;618.17;328.70;;;;;;;;;;4891737;28;20369;-51